Time;durP1;ratioP1;P1;durP2;ratioP2;P2;SDS_P1;SDS_P2;PMS_P1;PMS_P2;Temp;Humidity;BMP_temperature;BMP_pressure;BME280_temperature;BME280_humidity;BME280_pressure;Samples;Min_cycle;Max_cycle;Signal;HPM_P1;HPM_P2
2023/01/13 00:02:07;;;;;;;0.73;0.30;;;9.60;99.90;;;;;;5045286;28;20190;-78
2023/01/13 00:04:33;;;;;;;0.30;0.30;;;9.60;99.90;;;;;;5045844;28;20170;-77
2023/01/13 00:06:58;;;;;;;0.43;0.43;;;9.50;99.90;;;;;;5044089;28;20204;-77
2023/01/13 00:09:24;;;;;;;1.27;0.37;;;9.50;99.90;;;;;;5045297;28;20214;-77
2023/01/13 00:11:49;;;;;;;0.53;0.30;;;9.50;99.90;;;;;;5044970;28;20189;-78
2023/01/13 00:14:16;;;;;;;0.30;0.30;;;9.50;99.90;;;;;;5045346;28;20233;-79
2023/01/13 00:16:42;;;;;;;0.67;0.40;;;9.50;99.90;;;;;;5045028;28;20183;-77
2023/01/13 00:19:07;;;;;;;1.50;0.50;;;9.50;99.90;;;;;;5043886;28;20206;-77
2023/01/13 00:21:33;;;;;;;0.40;0.37;;;9.50;99.90;;;;;;5043843;28;20561;-79
2023/01/13 00:23:58;;;;;;;0.53;0.30;;;9.50;99.90;;;;;;5043646;28;20714;-78
2023/01/13 00:26:26;;;;;;;0.30;0.30;;;9.40;99.90;;;;;;5043787;28;20197;-77
2023/01/13 00:28:57;;;;;;;0.30;0.30;;;9.40;99.90;;;;;;5045019;28;20213;-77
2023/01/13 00:31:22;;;;;;;0.53;0.30;;;9.40;99.90;;;;;;5043529;28;20313;-77
2023/01/13 00:33:49;;;;;;;0.30;0.30;;;9.50;99.90;;;;;;5043412;28;20280;-76
2023/01/13 00:36:16;;;;;;;0.53;0.30;;;9.40;99.90;;;;;;5044938;28;20587;-78
2023/01/13 00:38:42;;;;;;;1.50;0.40;;;9.50;99.90;;;;;;5043261;28;20234;-79
2023/01/13 00:41:17;;;;;;;2.00;0.40;;;9.50;99.90;;;;;;5044611;28;20251;-76
2023/01/13 00:43:43;;;;;;;0.50;0.40;;;9.50;99.90;;;;;;5045297;28;20290;-76
2023/01/13 00:46:11;;;;;;;0.30;0.30;;;9.50;99.90;;;;;;5044720;28;20186;-76
2023/01/13 00:48:36;;;;;;;1.60;0.40;;;9.40;99.90;;;;;;5044522;28;20205;-78
2023/01/13 00:51:12;;;;;;;0.43;0.30;;;9.40;99.90;;;;;;5043453;28;20202;-77
2023/01/13 00:53:42;;;;;;;0.30;0.30;;;9.40;99.90;;;;;;5043749;28;20173;-79
2023/01/13 00:56:13;;;;;;;0.30;0.30;;;9.40;99.90;;;;;;5043050;28;20239;-78
2023/01/13 00:58:39;;;;;;;0.30;0.30;;;9.40;99.90;;;;;;5044946;28;20245;-77
2023/01/13 01:01:08;;;;;;;0.30;0.30;;;9.40;99.90;;;;;;5045828;28;20752;-79
2023/01/13 01:03:34;;;;;;;0.40;0.30;;;9.40;99.90;;;;;;5044979;28;20182;-79
2023/01/13 01:06:05;;;;;;;0.20;0.20;;;9.40;99.90;;;;;;5045528;28;20284;-78
2023/01/13 01:08:31;;;;;;;0.30;0.30;;;9.50;99.90;;;;;;5043757;28;20213;-77
2023/01/13 01:11:24;;;;;;;0.30;0.30;;;9.50;99.90;;;;;;5043678;28;20202;-77
2023/01/13 01:13:51;;;;;;;0.20;0.20;;;9.40;99.90;;;;;;5042317;28;20247;-79
2023/01/13 01:16:19;;;;;;;0.40;0.40;;;9.30;99.90;;;;;;5044949;28;20182;-79
2023/01/13 01:18:46;;;;;;;0.40;0.30;;;9.30;99.90;;;;;;5044147;28;20275;-80
2023/01/13 01:21:13;;;;;;;0.30;0.30;;;9.30;99.90;;;;;;5045200;28;20208;-78
2023/01/13 01:23:39;;;;;;;0.87;0.40;;;9.40;99.90;;;;;;5047461;28;20243;-76
2023/01/13 01:26:11;;;;;;;0.50;0.40;;;9.40;99.90;;;;;;5049380;28;20186;-79
2023/01/13 01:28:37;;;;;;;0.87;0.50;;;9.40;99.90;;;;;;5049711;28;20202;-77
2023/01/13 01:31:08;;;;;;;0.80;0.40;;;9.50;99.90;;;;;;5047874;28;20286;-79
2023/01/13 01:33:33;;;;;;;0.83;0.40;;;9.50;99.90;;;;;;5048824;28;20762;-78
2023/01/13 01:36:00;;;;;;;0.57;0.47;;;9.60;99.90;;;;;;5049244;28;20269;-76
2023/01/13 01:38:26;;;;;;;0.47;0.47;;;9.60;99.90;;;;;;5048196;28;20230;-79
2023/01/13 01:40:52;;;;;;;0.40;0.30;;;9.70;99.90;;;;;;5049648;28;20266;-79
2023/01/13 01:46:06;;;;;;;1.00;0.60;;;9.60;99.90;;;;;;5049418;28;20190;-78
2023/01/13 01:48:36;;;;;;;0.40;0.30;;;9.70;99.90;;;;;;5049418;28;20210;-76
2023/01/13 01:51:06;;;;;;;0.30;0.30;;;9.70;99.90;;;;;;5048265;28;20213;-78
2023/01/13 01:53:32;;;;;;;0.33;0.33;;;9.70;99.90;;;;;;5047082;28;20248;-79
2023/01/13 01:55:58;;;;;;;0.70;0.27;;;9.70;99.90;;;;;;5049250;28;20856;-76
2023/01/13 01:58:30;;;;;;;0.40;0.30;;;9.70;99.90;;;;;;5048793;28;20210;-78
2023/01/13 02:00:56;;;;;;;0.40;0.30;;;9.60;99.90;;;;;;5049549;28;20623;-79
2023/01/13 02:03:23;;;;;;;0.57;0.30;;;9.60;99.90;;;;;;5047608;28;20300;-81
2023/01/13 02:05:48;;;;;;;0.20;0.20;;;9.60;99.90;;;;;;5048167;28;20178;-77
2023/01/13 02:08:14;;;;;;;0.37;0.37;;;9.60;99.90;;;;;;5047816;28;20212;-78
2023/01/13 02:10:44;;;;;;;0.37;0.33;;;9.60;99.90;;;;;;5048888;28;20206;-79
2023/01/13 02:13:11;;;;;;;0.20;0.20;;;9.60;99.90;;;;;;5047025;28;20185;-77
2023/01/13 02:15:57;;;;;;;0.30;0.30;;;9.60;99.90;;;;;;5047050;28;20181;-79
2023/01/13 02:18:47;;;;;;;0.60;0.40;;;9.70;99.90;;;;;;5047150;28;20194;-79
2023/01/13 02:21:33;;;;;;;0.30;0.30;;;9.70;99.90;;;;;;5047076;28;20190;-79
2023/01/13 02:27:50;;;;;;;0.33;0.30;;;9.60;99.90;;;;;;5046475;28;20691;-78
2023/01/13 02:33:40;;;;;;;0.67;0.20;;;9.50;99.90;;;;;;5045919;28;20223;-79
2023/01/13 02:36:25;;;;;;;0.20;0.20;;;9.40;99.90;;;;;;5045184;28;20190;-79
2023/01/13 02:39:02;;;;;;;0.53;0.27;;;9.40;99.90;;;;;;5045127;28;20202;-78
2023/01/13 02:44:34;;;;;;;1.07;0.33;;;9.20;1.00;;;;;;5047114;28;20622;-79
2023/01/13 02:47:09;;;;;;;0.20;0.20;;;9.20;1.00;;;;;;5046414;28;20182;-78
2023/01/13 02:49:54;;;;;;;1.07;0.27;;;9.10;1.00;;;;;;5044925;28;20235;-79
2023/01/13 02:52:46;;;;;;;0.20;0.20;;;9.10;1.00;;;;;;5046516;28;20178;-79
2023/01/13 02:55:20;;;;;;;0.73;0.30;;;9.10;1.00;;;;;;5046845;28;20269;-79
2023/01/13 02:57:48;;;;;;;1.03;0.30;;;9.20;1.00;;;;;;5046305;28;20679;-79
2023/01/13 03:00:15;;;;;;;0.20;0.20;;;9.00;1.00;;;;;;5046478;28;20193;-78
2023/01/13 03:02:40;;;;;;;0.20;0.20;;;8.90;39.30;;;;;;5045952;28;20182;-79
2023/01/13 03:05:06;;;;;;;0.57;0.27;;;8.90;99.90;;;;;;5046234;28;20183;-79
2023/01/13 03:07:38;;;;;;;1.13;0.20;;;8.90;99.90;;;;;;5046612;28;20217;-79
2023/01/13 03:10:21;;;;;;;0.23;0.23;;;8.90;99.90;;;;;;5045179;28;20237;-78
2023/01/13 03:12:58;;;;;;;0.20;0.20;;;8.80;1.00;;;;;;5045553;28;20664;-78
2023/01/13 03:15:47;;;;;;;0.53;0.30;;;8.70;1.00;;;;;;5045921;28;20186;-79
2023/01/13 03:18:27;;;;;;;0.20;0.20;;;8.60;1.00;;;;;;5046060;28;20201;-79
2023/01/13 03:21:13;;;;;;;0.27;0.27;;;8.60;1.00;;;;;;5045051;28;20689;-79
2023/01/13 03:23:58;;;;;;;0.27;0.23;;;8.50;14.50;;;;;;5044886;28;20198;-76
2023/01/13 03:26:35;;;;;;;1.20;0.40;;;8.40;99.00;;;;;;5053676;28;20276;-79
2023/01/13 03:29:10;;;;;;;0.20;0.20;;;8.40;99.90;;;;;;5044404;28;20197;-78
2023/01/13 03:31:42;;;;;;;0.20;0.20;;;8.40;99.90;;;;;;5050351;28;20190;-78
2023/01/13 03:34:19;;;;;;;0.30;0.30;;;8.40;99.90;;;;;;5044398;28;20198;-77
2023/01/13 03:36:49;;;;;;;0.23;0.23;;;8.30;99.90;;;;;;5043946;28;20240;-77
2023/01/13 03:39:20;;;;;;;0.43;0.43;;;8.40;1.00;;;;;;5045629;28;20202;-77
2023/01/13 03:41:53;;;;;;;0.87;0.43;;;8.50;99.90;;;;;;5045538;28;20182;-79
2023/01/13 03:44:26;;;;;;;0.50;0.30;;;8.60;99.90;;;;;;5045358;28;20197;-78
2023/01/13 03:47:25;;;;;;;1.43;0.50;;;8.70;1.00;;;;;;5045248;28;20975;-79
2023/01/13 03:50:25;;;;;;;0.60;0.30;;;8.70;99.90;;;;;;5041389;28;20268;-77
2023/01/13 03:52:57;;;;;;;0.63;0.40;;;8.70;1.00;;;;;;5013035;28;20668;-76
2023/01/13 03:55:30;;;;;;;0.90;0.50;;;8.70;1.00;;;;;;5045269;28;20182;-76
2023/01/13 03:58:21;;;;;;;0.90;0.40;;;8.70;1.00;;;;;;5044661;28;20202;-77
2023/01/13 04:00:58;;;;;;;2.50;0.83;;;8.80;99.90;;;;;;5043667;28;20216;-80
2023/01/13 04:04:07;;;;;;;0.67;0.40;;;8.80;99.90;;;;;;5044837;28;20186;-77
2023/01/13 04:06:54;;;;;;;0.93;0.30;;;8.80;99.90;;;;;;5043902;28;20186;-79
2023/01/13 04:09:44;;;;;;;0.50;0.20;;;8.80;99.90;;;;;;5043654;28;20201;-76
2023/01/13 04:12:59;;;;;;;1.90;0.50;;;8.80;99.90;;;;;;5045044;28;20194;-78
2023/01/13 04:15:20;;;;;;;0.57;0.40;;;8.70;1.00;;;;;;5044804;28;20629;-77
2023/01/13 04:17:45;;;;;;;0.50;0.40;;;8.70;1.00;;;;;;5045378;28;20324;-79
2023/01/13 04:20:11;;;;;;;1.13;0.33;;;8.60;1.00;;;;;;5045766;28;20280;-79
2023/01/13 04:22:37;;;;;;;0.40;0.30;;;8.60;1.00;;;;;;5045309;28;20667;-78
2023/01/13 04:25:03;;;;;;;0.30;0.30;;;8.60;1.00;;;;;;5045903;28;20194;-77
2023/01/13 04:27:29;;;;;;;0.20;0.20;;;8.70;1.00;;;;;;5045283;28;20249;-77
2023/01/13 04:29:55;;;;;;;1.33;0.50;;;8.70;1.00;;;;;;5045595;28;20212;-78
2023/01/13 04:32:20;;;;;;;1.50;0.40;;;8.70;1.00;;;;;;5045734;28;20182;-79
2023/01/13 04:34:46;;;;;;;1.37;0.50;;;8.80;1.00;;;;;;5044046;28;20200;-78
2023/01/13 04:37:11;;;;;;;2.27;0.70;;;8.80;1.00;;;;;;5044249;28;20193;-79
2023/01/13 04:39:37;;;;;;;2.97;0.50;;;8.90;99.90;;;;;;5042121;28;20205;-80
2023/01/13 04:42:02;;;;;;;2.60;0.80;;;8.90;99.90;;;;;;5044948;28;20292;-76
2023/01/13 04:44:34;;;;;;;4.50;0.93;;;8.90;99.90;;;;;;5045583;28;20180;-77
2023/01/13 04:47:00;;;;;;;3.27;0.90;;;8.90;99.90;;;;;;5045800;28;20178;-77
2023/01/13 04:49:26;;;;;;;1.63;0.50;;;8.90;99.90;;;;;;5046411;28;20233;-80
2023/01/13 04:51:51;;;;;;;3.67;0.80;;;8.80;99.90;;;;;;5047078;28;20595;-78
2023/01/13 04:54:17;;;;;;;3.17;0.80;;;8.70;90.30;;;;;;5045350;28;20190;-80
2023/01/13 04:56:43;;;;;;;2.27;0.80;;;8.60;99.40;;;;;;5046120;28;20210;-78
2023/01/13 04:59:12;;;;;;;4.03;0.93;;;8.50;79.20;;;;;;5050146;28;20206;-79
2023/01/13 05:01:39;;;;;;;3.83;0.80;;;8.50;66.10;;;;;;5049902;28;20660;-79
2023/01/13 05:04:05;;;;;;;3.10;0.80;;;8.40;52.70;;;;;;5050520;28;20182;-78
2023/01/13 05:06:31;;;;;;;2.73;0.80;;;8.40;62.40;;;;;;5048466;28;20193;-78
2023/01/13 05:08:57;;;;;;;8.17;1.20;;;8.40;48.80;;;;;;5048594;28;20197;-80
2023/01/13 05:17:02;;;;;;;3.93;0.70;;;8.40;30.00;;;;;;5050219;28;20266;-79
2023/01/13 05:19:33;;;;;;;1.93;0.63;;;8.40;36.80;;;;;;5049686;28;20801;-79
2023/01/13 05:27:28;;;;;;;2.73;1.00;;;9.00;26.60;;;;;;5049240;28;20217;-79
2023/01/13 05:29:54;;;;;;;3.87;1.00;;;8.20;35.00;;;;;;5049316;28;20233;-79
2023/01/13 05:32:21;;;;;;;1.30;0.70;;;8.10;58.60;;;;;;5049374;28;20269;-78
2023/01/13 05:34:47;;;;;;;1.43;0.60;;;8.10;73.20;;;;;;5047483;28;20194;-78
2023/01/13 05:37:12;;;;;;;1.47;0.50;;;8.10;93.40;;;;;;5047357;28;20190;-77
2023/01/13 05:45:07;;;;;;;1.47;0.40;;;8.10;57.00;;;;;;5047284;28;20340;-77
2023/01/13 05:47:33;;;;;;;2.27;0.67;;;8.10;55.40;;;;;;5046901;28;20738;-78
2023/01/13 05:49:58;;;;;;;1.93;0.73;;;8.10;49.10;;;;;;5046346;28;20249;-77
2023/01/13 05:52:24;;;;;;;2.20;0.57;;;8.10;45.60;;;;;;5046779;28;20214;-76
2023/01/13 05:54:50;;;;;;;2.97;0.60;;;8.10;33.70;;;;;;5045819;28;20197;-80
2023/01/13 05:57:15;;;;;;;3.00;1.17;;;8.00;41.70;;;;;;5045019;28;20186;-77
2023/01/13 05:59:41;;;;;;;1.37;0.50;;;7.90;40.20;;;;;;5046976;28;20560;-77
2023/01/13 06:02:06;;;;;;;2.23;0.50;;;7.90;53.20;;;;;;5046552;28;20190;-77
2023/01/13 06:04:32;;;;;;;2.23;0.53;;;7.80;47.50;;;;;;5047200;28;20841;-78
2023/01/13 06:06:58;;;;;;;7.27;1.33;;;7.60;46.00;;;;;;5045829;28;20178;-79
2023/01/13 06:09:23;;;;;;;2.40;0.83;;;7.60;42.50;;;;;;5045724;28;20327;-78
2023/01/13 06:11:49;;;;;;;3.03;0.80;;;7.60;64.30;;;;;;5046511;28;20560;-76
2023/01/13 06:14:14;;;;;;;3.50;0.73;;;7.50;55.40;;;;;;5047232;28;20182;-77
2023/01/13 06:16:40;;;;;;;3.37;0.73;;;7.50;55.40;;;;;;5047027;28;20190;-79
2023/01/13 06:19:07;;;;;;;2.53;0.87;;;7.50;57.40;;;;;;5046524;28;20198;-77
2023/01/13 06:21:34;;;;;;;3.50;1.07;;;7.50;51.80;;;;;;5047079;28;20186;-79
2023/01/13 06:24:00;;;;;;;4.87;0.87;;;7.40;49.20;;;;;;5050393;28;20602;-78
2023/01/13 06:26:27;;;;;;;3.30;0.70;;;7.40;34.50;;;;;;5051560;28;20259;-79
2023/01/13 06:28:53;;;;;;;3.27;0.83;;;7.30;40.70;;;;;;5049814;28;20698;-78
2023/01/13 06:31:19;;;;;;;3.30;0.70;;;7.30;44.40;;;;;;5047843;28;20210;-78
2023/01/13 06:33:51;;;;;;;2.73;0.70;;;7.30;45.60;;;;;;5049179;28;20228;-78
2023/01/13 06:36:24;;;;;;;3.37;0.93;;;7.20;42.30;;;;;;5049610;28;20320;-79
2023/01/13 06:38:54;;;;;;;3.87;0.80;;;7.30;46.60;;;;;;5050605;28;20270;-78
2023/01/13 06:43:13;;;;;;;4.07;0.83;;;7.30;53.80;;;;;;5048091;28;20224;-78
2023/01/13 06:44:08;;;;;;;2.73;0.70;;;7.20;50.70;;;;;;5049692;28;20212;-78
2023/01/13 06:46:34;;;;;;;1.60;0.77;;;7.20;43.60;;;;;;5049451;28;20624;-78
2023/01/13 06:49:00;;;;;;;5.77;1.00;;;7.30;43.40;;;;;;5049932;28;20651;-78
2023/01/13 06:51:25;;;;;;;6.00;1.30;;;7.20;45.10;;;;;;5047755;28;20439;-80
2023/01/13 06:53:51;;;;;;;4.23;1.00;;;7.30;37.90;;;;;;5047774;28;20542;-78
2023/01/13 06:56:16;;;;;;;4.67;0.90;;;7.40;13.00;;;;;;5048051;28;20660;-78
2023/01/13 06:58:42;;;;;;;3.30;1.80;;;7.40;29.60;;;;;;5048682;28;20209;-79
2023/01/13 07:01:07;;;;;;;4.53;2.03;;;7.50;10.40;;;;;;5038200;28;20253;-78
2023/01/13 07:03:33;;;;;;;2.87;1.90;;;7.40;14.20;;;;;;5050837;28;20186;-78
2023/01/13 07:05:59;;;;;;;6.00;1.47;;;7.50;18.90;;;;;;5049601;28;20192;-78
2023/01/13 07:08:25;;;;;;;7.03;1.20;;;7.50;10.50;;;;;;5049006;28;20244;-78
2023/01/13 07:10:51;;;;;;;3.83;1.03;;;7.50;9.60;;;;;;5048991;28;20205;-78
2023/01/13 07:16:04;;;;;;;3.50;1.20;;;7.40;5.40;;;;;;5049742;28;20189;-78
2023/01/13 07:18:31;;;;;;;5.87;1.50;;;7.40;1.30;;;;;;5049476;28;20217;-78
2023/01/13 07:21:06;;;;;;;4.83;1.50;;;7.40;2.10;;;;;;5055867;28;20187;-78
2023/01/13 07:23:34;;;;;;;4.53;1.30;;;7.40;2.10;;;;;;5056639;28;20186;-78
2023/01/13 07:26:00;;;;;;;3.60;1.20;;;7.40;1.00;;;;;;5049971;28;20252;-78
2023/01/13 07:28:28;;;;;;;4.80;1.40;;;7.40;4.50;;;;;;5047985;28;20202;-78
2023/01/13 07:30:54;;;;;;;4.57;1.00;;;7.40;6.20;;;;;;5047496;28;20299;-78
2023/01/13 07:33:20;;;;;;;8.07;1.47;;;7.40;1.00;;;;;;5048331;28;20206;-79
2023/01/13 07:35:47;;;;;;;5.27;1.20;;;7.40;1.00;;;;;;5046607;28;20194;-78
2023/01/13 07:38:13;;;;;;;6.77;1.27;;;7.60;1.00;;;;;;5046965;28;20210;-80
2023/01/13 07:40:42;;;;;;;4.50;1.10;;;7.50;1.00;;;;;;5047856;28;20240;-79
2023/01/13 07:46:00;;;;;;;6.90;1.40;;;7.60;1.00;;;;;;5048571;28;21126;-79
2023/01/13 07:48:27;;;;;;;5.03;1.10;;;7.60;1.00;;;;;;5056156;28;20210;-78
2023/01/13 07:50:53;;;;;;;4.93;1.33;;;7.60;1.00;;;;;;5048553;28;20696;-79
2023/01/13 07:53:18;;;;;;;7.57;1.37;;;7.60;1.00;;;;;;5048901;28;20262;-78
2023/01/13 07:55:44;;;;;;;7.87;1.70;;;7.60;1.00;;;;;;5049963;28;20289;-78
2023/01/13 07:58:10;;;;;;;7.33;1.87;;;7.60;1.00;;;;;;5050212;28;20214;-78
2023/01/13 08:00:37;;;;;;;4.10;1.40;;;7.60;1.00;;;;;;5049442;28;20186;-78
2023/01/13 08:03:02;;;;;;;4.90;1.53;;;7.60;1.00;;;;;;5049227;28;20243;-79
2023/01/13 08:05:28;;;;;;;7.83;1.53;;;7.50;1.00;;;;;;5048366;28;20186;-78
2023/01/13 08:07:53;;;;;;;6.27;1.37;;;7.60;1.00;;;;;;5048152;28;20266;-78
2023/01/13 08:10:19;;;;;;;4.77;1.63;;;7.60;1.00;;;;;;5048971;28;20217;-78
2023/01/13 08:15:31;;;;;;;4.93;1.67;;;7.60;1.00;;;;;;5050632;28;20239;-78
2023/01/13 08:17:58;;;;;;;7.17;2.00;;;7.60;1.00;;;;;;5049089;28;20205;-78
2023/01/13 08:20:24;;;;;;;4.53;1.70;;;7.60;1.00;;;;;;5049122;28;20186;-78
2023/01/13 08:22:50;;;;;;;5.53;1.50;;;7.60;1.00;;;;;;5046386;28;20201;-78
2023/01/13 08:25:16;;;;;;;7.53;2.27;;;7.60;1.00;;;;;;5047745;28;20190;-78
2023/01/13 08:27:41;;;;;;;5.13;2.07;;;7.80;1.00;;;;;;5047254;28;20316;-78
2023/01/13 08:30:08;;;;;;;4.13;1.60;;;;;;;;;;5048309;28;20238;-79
2023/01/13 08:32:33;;;;;;;5.90;2.30;;;7.90;1.00;;;;;;5046203;28;20188;-79
2023/01/13 08:34:59;;;;;;;5.40;1.57;;;7.90;1.00;;;;;;5049457;28;20198;-79
2023/01/13 08:37:24;;;;;;;5.60;1.73;;;7.90;1.00;;;;;;5048247;28;20652;-79
2023/01/13 08:39:50;;;;;;;6.13;1.33;;;8.00;1.00;;;;;;5047700;28;20204;-79
2023/01/13 08:42:16;;;;;;;4.87;1.57;;;8.20;1.00;;;;;;5045434;28;20212;-78
2023/01/13 08:44:41;;;;;;;3.90;1.60;;;8.20;1.00;;;;;;5045007;28;20232;-79
2023/01/13 08:47:07;;;;;;;7.60;1.87;;;8.30;1.00;;;;;;5044824;28;20563;-78
2023/01/13 08:49:32;;;;;;;3.43;1.27;;;8.40;1.00;;;;;;5045900;28;20202;-78
2023/01/13 08:51:58;;;;;;;4.87;1.30;;;8.50;1.00;;;;;;5044839;28;20182;-78
2023/01/13 08:54:24;;;;;;;4.80;1.60;;;8.50;1.00;;;;;;5046593;28;20186;-78
2023/01/13 08:56:50;;;;;;;4.23;1.30;;;8.50;1.00;;;;;;5044063;28;20268;-78
2023/01/13 08:59:17;;;;;;;4.30;1.10;;;8.50;1.00;;;;;;5046195;28;20210;-79
2023/01/13 09:01:44;;;;;;;4.80;1.20;;;8.50;1.00;;;;;;5046024;28;20190;-78
2023/01/13 09:04:21;;;;;;;5.40;1.80;;;8.50;1.00;;;;;;5042313;28;20190;-78
2023/01/13 09:06:48;;;;;;;3.63;1.20;;;9.20;1.00;;;;;;5039146;28;20282;-78
2023/01/13 09:09:14;;;;;;;7.53;2.03;;;8.30;1.00;;;;;;5040243;28;20259;-78
2023/01/13 09:14:30;;;;;;;4.77;1.30;;;8.30;1.00;;;;;;5041766;28;20206;-79
2023/01/13 09:16:55;;;;;;;4.33;1.30;;;8.30;1.00;;;;;;5041911;28;20736;-78
2023/01/13 09:19:21;;;;;;;5.87;2.17;;;8.20;1.00;;;;;;5041721;28;20317;-78
2023/01/13 09:21:47;;;;;;;6.40;1.17;;;8.30;1.00;;;;;;5040776;28;20210;-78
2023/01/13 09:24:12;;;;;;;4.40;1.40;;;8.30;1.00;;;;;;5043162;28;20186;-78
2023/01/13 09:26:38;;;;;;;3.10;1.10;;;8.30;1.00;;;;;;5046268;28;20187;-78
2023/01/13 09:29:04;;;;;;;4.63;1.00;;;8.40;1.00;;;;;;5045018;28;20636;-78
2023/01/13 09:31:33;;;;;;;4.27;1.33;;;8.40;1.00;;;;;;5044296;28;20203;-78
2023/01/13 09:36:44;;;;;;;5.83;1.37;;;8.40;1.00;;;;;;5041709;28;20212;-78
2023/01/13 09:39:09;;;;;;;4.03;1.53;;;8.40;1.00;;;;;;5043477;28;20243;-78
2023/01/13 09:44:35;;;;;;;6.30;1.40;;;8.50;1.00;;;;;;5044223;28;20577;-79
2023/01/13 09:47:05;;;;;;;6.33;1.17;;;8.60;1.00;;;;;;5048155;28;20182;-78
2023/01/13 09:49:38;;;;;;;6.53;1.10;;;8.70;1.00;;;;;;5047830;28;20202;-79
2023/01/13 09:52:20;;;;;;;4.53;1.20;;;8.70;1.00;;;;;;5054002;28;20277;-79
2023/01/13 09:55:13;;;;;;;5.57;1.50;;;8.70;1.00;;;;;;5047528;28;20210;-80
2023/01/13 09:57:39;;;;;;;4.83;1.20;;;8.80;1.00;;;;;;5055009;28;20233;-80
2023/01/13 10:00:11;;;;;;;4.20;1.50;;;8.70;1.00;;;;;;5050932;28;20572;-80
2023/01/13 10:02:50;;;;;;;4.37;1.33;;;8.60;1.00;;;;;;5049849;28;20175;-78
2023/01/13 10:05:43;;;;;;;5.73;1.40;;;8.60;1.00;;;;;;5048703;28;20189;-78
2023/01/13 10:08:25;;;;;;;4.20;1.20;;;8.70;1.00;;;;;;5054426;28;20277;-79
2023/01/13 10:10:55;;;;;;;4.33;1.80;;;8.80;1.00;;;;;;5050473;28;20201;-79
2023/01/13 10:13:28;;;;;;;3.90;1.20;;;8.80;1.00;;;;;;5048731;28;20274;-80
2023/01/13 10:16:10;;;;;;;3.97;1.10;;;8.70;1.00;;;;;;5046094;28;20194;-79
2023/01/13 10:18:59;;;;;;;3.50;1.50;;;8.70;1.00;;;;;;5048985;28;20198;-78
2023/01/13 10:21:58;;;;;;;4.90;1.07;;;8.60;1.00;;;;;;5047914;28;20182;-80
2023/01/13 10:24:42;;;;;;;5.30;1.60;;;8.70;1.00;;;;;;5049460;28;20722;-77
2023/01/13 10:27:19;;;;;;;5.80;1.53;;;8.70;1.00;;;;;;5049441;28;20202;-77
2023/01/13 10:29:45;;;;;;;4.40;1.33;;;8.60;1.00;;;;;;5047338;28;20663;-81
2023/01/13 10:32:10;;;;;;;4.33;1.23;;;8.70;1.00;;;;;;5045406;28;20209;-80
2023/01/13 10:34:50;;;;;;;5.10;1.20;;;8.60;1.00;;;;;;5047042;28;20216;-80
2023/01/13 10:37:21;;;;;;;5.40;1.30;;;8.60;1.00;;;;;;5045595;28;20300;-80
2023/01/13 10:39:48;;;;;;;4.93;1.50;;;8.60;1.00;;;;;;5044667;28;20188;-80
2023/01/13 10:42:20;;;;;;;6.70;1.50;;;8.60;1.00;;;;;;5046022;28;20237;-80
2023/01/13 10:44:53;;;;;;;5.40;1.60;;;8.70;1.00;;;;;;5046482;28;20189;-81
2023/01/13 10:47:26;;;;;;;4.43;1.20;;;8.90;1.00;;;;;;5053539;28;20203;-81
2023/01/13 10:50:21;;;;;;;2.80;1.27;;;9.00;1.00;;;;;;5048220;28;20218;-78
2023/01/13 10:53:13;;;;;;;3.17;1.03;;;9.10;1.00;;;;;;5048031;28;20245;-78
2023/01/13 10:55:40;;;;;;;8.07;1.40;;;9.10;1.00;;;;;;5041443;28;20204;-78
2023/01/13 10:58:19;;;;;;;6.87;1.50;;;9.10;1.00;;;;;;5047152;28;20198;-79
2023/01/13 11:00:47;;;;;;;4.87;1.60;;;9.00;1.00;;;;;;5044295;28;21104;-78
2023/01/13 11:03:21;;;;;;;3.90;1.00;;;9.30;1.00;;;;;;5044261;28;20193;-79
2023/01/13 11:05:53;;;;;;;5.77;1.30;;;8.90;1.00;;;;;;5046399;28;20558;-79
2023/01/13 11:08:21;;;;;;;3.37;1.13;;;8.90;1.00;;;;;;5047374;28;20501;-79
2023/01/13 11:10:50;;;;;;;5.93;1.50;;;8.90;1.00;;;;;;5043278;28;20552;-79
2023/01/13 11:13:24;;;;;;;4.80;1.33;;;8.80;1.00;;;;;;5040302;28;20198;-78
2023/01/13 11:15:59;;;;;;;3.37;1.10;;;8.80;1.00;;;;;;5042636;28;20190;-78
2023/01/13 11:19:00;;;;;;;4.70;1.43;;;8.90;1.00;;;;;;5042087;28;20198;-78
2023/01/13 11:21:37;;;;;;;4.03;0.90;;;8.80;1.00;;;;;;5041938;28;20177;-78
2023/01/13 11:24:14;;;;;;;4.80;1.43;;;8.90;1.00;;;;;;5043319;28;20284;-77
2023/01/13 11:26:46;;;;;;;5.50;1.40;;;8.80;1.00;;;;;;5042124;28;20564;-77
2023/01/13 11:29:37;;;;;;;4.83;1.40;;;8.80;1.00;;;;;;5040045;28;20308;-78
2023/01/13 11:32:15;;;;;;;6.47;1.43;;;8.80;1.00;;;;;;5042142;28;20191;-77
2023/01/13 11:34:44;;;;;;;3.97;1.37;;;8.90;1.00;;;;;;5035349;28;20623;-77
2023/01/13 11:37:21;;;;;;;4.40;1.33;;;8.90;1.00;;;;;;5041267;28;20187;-77
2023/01/13 11:40:02;;;;;;;5.53;1.60;;;8.90;1.00;;;;;;5043563;28;20182;-79
2023/01/13 11:42:36;;;;;;;5.50;1.63;;;8.90;1.00;;;;;;5046760;28;20181;-79
2023/01/13 11:45:18;;;;;;;3.90;1.20;;;8.90;1.00;;;;;;5044072;28;20537;-79
2023/01/13 11:47:49;;;;;;;5.20;1.50;;;8.90;1.00;;;;;;5046948;28;20202;-77
2023/01/13 11:50:22;;;;;;;3.87;1.10;;;10.20;1.00;;;;;;5043766;28;20233;-78
2023/01/13 11:52:48;;;;;;;5.67;1.43;;;9.00;1.00;;;;;;5044029;28;20292;-78
2023/01/13 11:55:33;;;;;;;5.83;1.70;;;9.00;1.00;;;;;;5043231;28;20273;-78
2023/01/13 11:58:01;;;;;;;5.60;1.43;;;9.10;1.00;;;;;;5044000;28;20213;-78
2023/01/13 12:00:51;;;;;;;4.13;1.53;;;9.00;1.00;;;;;;5043814;28;20190;-78
2023/01/13 12:03:32;;;;;;;5.23;1.40;;;9.00;1.00;;;;;;5042242;28;20201;-77
2023/01/13 12:06:35;;;;;;;5.60;1.20;;;9.00;1.00;;;;;;5041669;28;21042;-77
2023/01/13 12:09:45;;;;;;;5.20;1.47;;;9.10;1.00;;;;;;5044124;28;20726;-77
2023/01/13 12:12:33;;;;;;;2.93;1.10;;;9.00;1.00;;;;;;5030111;28;20209;-78
2023/01/13 12:15:44;;;;;;;4.87;1.40;;;9.10;1.00;;;;;;5042020;28;20190;-80
2023/01/13 12:18:36;;;;;;;3.93;1.40;;;9.00;1.00;;;;;;5037101;28;20232;-77
2023/01/13 12:21:24;;;;;;;4.33;1.27;;;8.90;1.00;;;;;;5044492;28;20216;-76
2023/01/13 12:24:13;;;;;;;6.03;1.10;;;9.00;1.00;;;;;;5045224;28;20182;-77
2023/01/13 12:26:48;;;;;;;7.87;2.23;;;8.90;1.00;;;;;;5044573;28;20178;-77
2023/01/13 12:29:17;;;;;;;4.27;1.30;;;8.90;1.00;;;;;;5043284;28;20224;-80
2023/01/13 12:31:46;;;;;;;6.57;1.50;;;8.90;1.00;;;;;;5045043;28;20271;-78
2023/01/13 12:34:24;;;;;;;5.70;1.30;;;8.90;1.00;;;;;;5040753;28;20202;-77
2023/01/13 12:37:20;;;;;;;5.67;1.40;;;9.00;1.00;;;;;;5052395;28;20190;-76
2023/01/13 12:39:52;;;;;;;6.07;1.40;;;9.00;1.00;;;;;;5044994;28;20313;-77
2023/01/13 12:45:15;;;;;;;6.60;1.40;;;9.10;1.00;;;;;;5042125;28;20208;-76
2023/01/13 12:47:43;;;;;;;5.10;1.47;;;9.10;1.00;;;;;;5043554;28;20210;-78
2023/01/13 12:50:23;;;;;;;6.33;2.13;;;9.10;1.00;;;;;;5044048;28;20233;-75
2023/01/13 12:52:56;;;;;;;5.93;1.30;;;9.00;1.00;;;;;;5044433;28;20676;-77
2023/01/13 12:55:42;;;;;;;3.37;1.17;;;8.90;1.00;;;;;;5043747;28;20178;-78
2023/01/13 12:58:07;;;;;;;4.63;1.43;;;8.90;1.00;;;;;;5043625;28;20218;-80
2023/01/13 13:00:38;;;;;;;3.90;1.33;;;9.10;1.00;;;;;;5044397;28;20256;-78
2023/01/13 13:03:10;;;;;;;5.50;1.47;;;9.10;1.00;;;;;;5043888;28;20611;-80
2023/01/13 13:05:46;;;;;;;4.53;1.40;;;9.10;1.00;;;;;;5043174;28;20231;-79
2023/01/13 13:08:56;;;;;;;4.40;1.50;;;9.10;1.00;;;;;;5039729;28;20324;-79
2023/01/13 13:14:41;;;;;;;6.83;1.80;;;9.20;1.00;;;;;;5045091;28;20189;-77
2023/01/13 13:17:24;;;;;;;8.90;2.00;;;9.30;1.00;;;;;;5050618;28;20265;-77
2023/01/13 13:19:51;;;;;;;5.43;1.50;;;9.30;1.00;;;;;;5055030;28;20182;-78
2023/01/13 13:22:17;;;;;;;8.37;2.00;;;9.40;1.00;;;;;;5037315;28;20554;-77
2023/01/13 13:24:58;;;;;;;6.37;1.83;;;9.30;1.00;;;;;;5045809;28;20171;-77
2023/01/13 13:27:39;;;;;;;7.47;1.70;;;9.20;1.00;;;;;;5045031;28;20199;-77
2023/01/13 13:30:12;;;;;;;3.67;1.30;;;8.90;1.00;;;;;;5044746;28;20197;-78
2023/01/13 13:32:43;;;;;;;7.70;1.33;;;9.20;1.00;;;;;;5049450;28;20190;-79
2023/01/13 13:35:18;;;;;;;5.63;1.53;;;9.10;1.00;;;;;;5048591;28;20194;-78
2023/01/13 13:46:47;;;;;;;5.70;1.63;;;8.80;1.00;;;;;;5044267;28;20963;-77
2023/01/13 13:49:18;;;;;;;5.87;1.73;;;8.70;1.00;;;;;;5045104;28;20626;-78
2023/01/13 13:51:51;;;;;;;5.43;1.40;;;8.60;1.00;;;;;;5044881;28;20461;-77
2023/01/13 13:54:20;;;;;;;7.83;1.50;;;8.60;1.00;;;;;;5032887;28;20182;-78
2023/01/13 13:56:46;;;;;;;6.07;1.60;;;8.50;1.00;;;;;;5046989;28;20297;-79
2023/01/13 13:59:16;;;;;;;7.53;2.30;;;8.40;1.00;;;;;;5046729;28;20202;-79
2023/01/13 14:01:44;;;;;;;5.20;1.50;;;8.40;1.00;;;;;;5045701;28;20205;-78
2023/01/13 14:04:24;;;;;;;4.97;1.57;;;8.40;1.00;;;;;;5046457;28;20181;-78
2023/01/13 14:06:54;;;;;;;6.10;2.10;;;8.40;1.00;;;;;;5042802;28;20186;-80
2023/01/13 14:09:22;;;;;;;6.73;1.80;;;8.40;1.00;;;;;;5045638;28;20206;-80
2023/01/13 14:12:02;;;;;;;5.53;1.80;;;8.40;1.00;;;;;;5045035;28;20214;-80
2023/01/13 14:14:29;;;;;;;6.57;1.87;;;8.40;1.00;;;;;;5044317;28;20671;-79
2023/01/13 14:16:55;;;;;;;10.07;1.97;;;8.40;1.00;;;;;;5044786;28;20212;-80
2023/01/13 14:19:26;;;;;;;8.27;1.63;;;8.30;1.00;;;;;;5044951;28;20206;-79
2023/01/13 14:21:53;;;;;;;5.17;1.60;;;8.30;1.00;;;;;;5044174;28;20186;-80
2023/01/13 14:24:21;;;;;;;6.03;2.00;;;8.30;1.00;;;;;;5045794;28;20185;-79
2023/01/13 14:26:51;;;;;;;8.57;1.73;;;8.30;1.00;;;;;;5046301;28;20182;-79
2023/01/13 14:29:21;;;;;;;5.17;1.40;;;8.30;1.00;;;;;;5044901;28;20221;-79